Time;durP1;ratioP1;P1;durP2;ratioP2;P2;SDS_P1;SDS_P2;PMS_P1;PMS_P2;Temp;Humidity;BMP_temperature;BMP_pressure;BME280_temperature;BME280_humidity;BME280_pressure;Samples;Min_cycle;Max_cycle;Signal;HPM_P1;HPM_P2
2023/04/27 00:07:21;;;;;;;14.00;5.00;;;;;;;2.77;61.62;98722.75;434326;1259;109502;-39
2023/04/27 00:17:25;;;;;;;11.20;6.00;;;;;;;2.80;61.92;98723.64;434319;1254;108317;-40
2023/04/27 00:27:29;;;;;;;15.20;6.40;;;;;;;2.71;62.20;98726.00;434399;1258;97571;-40
2023/04/27 00:37:33;;;;;;;14.90;8.30;;;;;;;2.56;62.36;98723.33;434394;1254;97948;-40
2023/04/27 00:47:37;;;;;;;19.00;9.00;;;;;;;2.42;62.70;98728.73;434515;1254;107793;-40
2023/04/27 00:57:41;;;;;;;18.10;6.60;;;;;;;2.29;62.93;98731.30;434508;1259;97553;-39
2023/04/27 01:07:44;;;;;;;12.20;4.30;;;;;;;2.15;62.86;98733.92;434397;1259;97871;-39
2023/04/27 01:17:49;;;;;;;7.40;3.60;;;;;;;2.10;63.33;98729.86;434265;1254;108431;-41
2023/04/27 01:27:53;;;;;;;18.10;5.20;;;;;;;2.23;63.71;98736.35;434376;1254;97850;-40
2023/04/27 01:37:56;;;;;;;15.10;7.60;;;;;;;2.20;63.83;98740.71;434363;1259;106970;-40
2023/04/27 01:48:00;;;;;;;12.10;8.00;;;;;;;2.11;64.13;98743.76;434475;1256;97980;-40
2023/04/27 01:58:05;;;;;;;24.20;8.90;;;;;;;1.98;64.23;98743.44;434315;1259;97874;-41
2023/04/27 02:08:08;;;;;;;17.00;7.60;;;;;;;1.82;64.49;98746.69;434387;1259;107700;-39
2023/04/27 02:28:16;;;;;;;10.10;5.40;;;;;;;1.78;64.97;98743.94;434384;1254;109980;-40
2023/04/27 02:38:21;;;;;;;16.10;6.20;;;;;;;1.81;65.05;98742.72;434222;1259;108616;-39
2023/04/27 02:48:25;;;;;;;21.80;8.10;;;;;;;1.76;65.32;98742.45;434224;1254;97864;-40
2023/04/27 02:58:29;;;;;;;26.10;10.70;;;;;;;1.56;65.54;98743.67;434247;1259;97983;-40
2023/04/27 03:08:33;;;;;;;23.30;10.20;;;;;;;1.32;65.85;98750.95;434321;1258;108683;-41
2023/04/27 03:18:38;;;;;;;18.20;9.70;;;;;;;1.08;66.18;98756.20;434427;1259;97495;-40
2023/04/27 03:28:42;;;;;;;14.30;7.60;;;;;;;0.98;66.22;98765.83;434367;1259;97871;-39
2023/04/27 03:38:45;;;;;;;12.30;5.70;;;;;;;1.03;66.57;98775.71;434188;1254;107783;-41
2023/04/27 03:48:49;;;;;;;10.60;5.80;;;;;;;1.25;66.80;98772.48;434363;1254;97168;-41
2023/04/27 03:58:53;;;;;;;18.60;9.00;;;;;;;1.45;66.97;98783.46;434414;1254;108293;-41
2023/04/27 04:08:57;;;;;;;17.90;10.20;;;;;;;1.97;67.16;98789.06;434312;1259;97861;-41
2023/04/27 04:19:01;;;;;;;17.10;10.20;;;;;;;3.20;66.72;98792.30;435131;1257;97474;-39
2023/04/27 04:29:05;;;;;;;21.70;10.40;;;;;;;4.50;66.20;98794.88;439783;1259;108756;-40
2023/04/27 04:39:09;;;;;;;19.50;9.90;;;;;;;5.91;65.49;98796.98;434348;1256;97970;-40
2023/04/27 04:49:13;;;;;;;17.10;10.40;;;;;;;6.86;64.52;98807.46;434261;1259;97868;-40
2023/04/27 04:59:17;;;;;;;20.80;10.90;;;;;;;7.38;64.25;98809.34;434396;1254;108467;-40
2023/04/27 05:09:20;;;;;;;16.10;9.50;;;;;;;8.75;63.60;98812.29;434312;1259;97931;-41
2023/04/27 05:19:24;;;;;;;16.20;7.50;;;;;;;9.86;62.68;98818.19;433792;1254;791751;-40
2023/04/27 05:29:28;;;;;;;19.80;7.40;;;;;;;10.33;61.70;98817.86;434312;1256;107305;-40
2023/04/27 05:39:32;;;;;;;12.80;7.90;;;;;;;11.21;61.26;98826.09;434244;1257;98002;-42
2023/04/27 05:49:36;;;;;;;31.70;8.00;;;;;;;11.89;59.66;98828.92;434279;1259;97756;-40
2023/04/27 05:59:40;;;;;;;14.10;6.50;;;;;;;12.03;57.83;98834.20;434266;1256;108099;-41
2023/04/27 06:09:44;;;;;;;13.90;6.20;;;;;;;12.38;56.75;98839.20;434327;1258;97868;-41
2023/04/27 06:19:49;;;;;;;11.20;6.00;;;;;;;12.76;55.61;98841.77;434322;1259;97928;-41
2023/04/27 06:29:52;;;;;;;17.20;6.50;;;;;;;13.21;54.98;98848.98;434333;1257;107885;-41
2023/04/27 06:39:56;;;;;;;10.60;5.80;;;;;;;13.61;53.61;98850.82;434330;1256;97871;-41
2023/04/27 06:50:00;;;;;;;12.50;5.20;;;;;;;13.72;52.05;98856.30;434313;1259;108143;-41
2023/04/27 07:00:06;;;;;;;8.10;4.60;;;;;;;13.79;51.54;98857.14;434307;1257;97897;-42
2023/04/27 07:10:09;;;;;;;9.40;4.50;;;;;;;13.65;50.31;98851.66;434404;1253;109803;-41
2023/04/27 07:30:17;;;;;;;10.70;4.20;;;;;;;13.09;49.71;98857.99;434309;1256;96667;-41
2023/04/27 07:50:24;;;;;;;8.80;3.20;;;;;;;11.83;47.77;98860.02;434355;1256;97964;-42
2023/04/27 08:00:29;;;;;;;6.80;3.80;;;;;;;11.75;48.85;98860.35;438457;1258;110301;-40
2023/04/27 08:10:32;;;;;;;11.50;3.50;;;;;;;12.38;47.79;98868.21;437086;1259;97890;-41
2023/04/27 08:20:36;;;;;;;6.20;3.70;;;;;;;13.07;47.86;98861.04;434325;1256;97506;-40
2023/04/27 08:30:42;;;;;;;7.60;4.20;;;;;;;12.34;47.36;98859.92;434350;1258;110520;-40
2023/04/27 08:40:46;;;;;;;9.90;4.80;;;;;;;12.96;46.82;98857.89;436247;1257;107411;-40
2023/04/27 08:50:52;;;;;;;7.70;3.90;;;;;;;12.14;46.83;98871.54;434364;1259;98147;-41
2023/04/27 09:00:56;;;;;;;7.00;3.90;;;;;;;12.39;46.79;98865.10;434336;1259;109148;-40
2023/04/27 09:11:00;;;;;;;8.70;4.00;;;;;;;11.51;46.36;98871.52;434226;1256;107067;-41
2023/04/27 09:21:05;;;;;;;6.80;3.80;;;;;;;11.04;47.25;98874.61;434336;1260;97506;-41
2023/04/27 09:31:10;;;;;;;13.00;3.30;;;;;;;11.08;47.25;98867.09;434393;1258;109406;-39
2023/04/27 09:41:16;;;;;;;10.70;7.60;;;;;;;11.25;46.68;98868.54;434266;1258;106930;-41
2023/04/27 09:51:20;;;;;;;14.80;9.80;;;;;;;10.92;46.11;98869.63;434360;1254;97871;-40
2023/04/27 10:01:23;;;;;;;11.40;4.70;;;;;;;11.09;46.92;98872.15;434376;1259;97909;-41
2023/04/27 10:21:51;;;;;;;6.30;4.30;;;;;;;11.31;46.48;98874.85;434317;1255;118414;-40
2023/04/27 10:31:55;;;;;;;7.30;3.80;;;;;;;11.42;46.21;98873.40;434331;1259;106952;-40
2023/04/27 10:41:59;;;;;;;7.10;4.40;;;;;;;10.94;46.12;98877.16;434358;1257;97906;-40
2023/04/27 10:52:03;;;;;;;4.10;2.50;;;;;;;11.01;45.64;98877.02;434330;1260;110503;-40
2023/04/27 11:02:07;;;;;;;8.00;3.80;;;;;;;11.71;43.56;98877.20;434354;1259;96721;-42
2023/04/27 11:12:13;;;;;;;9.50;4.20;;;;;;;11.73;44.13;98880.38;434412;1259;97876;-40
2023/04/27 11:22:17;;;;;;;6.60;3.20;;;;;;;11.58;44.32;98886.92;434309;1254;112190;-41
2023/04/27 11:32:22;;;;;;;12.50;8.50;;;;;;;11.33;44.73;98892.62;437961;1259;97925;-40
2023/04/27 11:42:28;;;;;;;6.40;4.40;;;;;;;11.01;44.43;98900.56;434311;1254;97888;-41
2023/04/27 11:52:34;;;;;;;8.50;5.80;;;;;;;11.13;44.74;98899.33;434451;1258;109241;-40
2023/04/27 12:02:38;;;;;;;10.80;4.40;;;;;;;11.33;43.70;98901.69;434238;1260;107546;-40
2023/04/27 12:12:43;;;;;;;9.10;5.60;;;;;;;11.38;43.77;98897.27;434224;1260;97868;-40
2023/04/27 12:22:47;;;;;;;8.20;5.40;;;;;;;11.31;43.78;98894.97;434230;1267;97993;-40
2023/04/27 12:32:51;;;;;;;10.70;3.80;;;;;;;11.71;44.02;98893.73;434226;1261;107472;-39
2023/04/27 12:42:54;;;;;;;17.50;5.60;;;;;;;11.24;44.74;98898.86;434220;1261;97961;-41
2023/04/27 13:13:07;;;;;;;5.50;3.10;;;;;;;10.78;45.94;98911.90;434319;1268;97477;-39
2023/04/27 13:23:11;;;;;;;12.30;5.00;;;;;;;10.43;45.87;98918.84;434204;1257;107843;-40
2023/04/27 13:33:16;;;;;;;11.80;5.90;;;;;;;10.41;46.41;98914.96;436800;1258;96704;-41
2023/04/27 13:43:26;;;;;;;9.60;3.90;;;;;;;10.86;46.67;98908.41;434334;1267;97909;-41
2023/04/27 13:53:30;;;;;;;5.40;3.80;;;;;;;11.33;46.51;98908.99;434293;1261;96653;-40
2023/04/27 14:03:34;;;;;;;12.10;4.10;;;;;;;11.46;45.88;98907.56;434247;1254;108186;-40
2023/04/27 14:13:38;;;;;;;4.10;2.90;;;;;;;11.37;45.19;98911.45;434222;1268;97989;-41
2023/04/27 14:23:53;;;;;;;5.60;2.80;;;;;;;11.20;44.87;98912.41;437718;1261;97972;-40
2023/04/27 15:55:44;;;;;;;8.40;4.70;;;;;;;10.38;45.88;98952.33;433950;1262;96077;-42
2023/04/27 16:05:48;;;;;;;24.80;11.10;;;;;;;10.21;45.96;98954.12;434052;1263;108155;-42
2023/04/27 16:15:52;;;;;;;24.10;10.70;;;;;;;9.94;46.22;98959.77;433869;1264;94549;-42
2023/04/27 16:26:00;;;;;;;24.90;8.30;;;;;;;9.84;46.57;98960.23;434144;1264;107824;-41
2023/04/27 16:36:04;;;;;;;27.00;10.30;;;;;;;9.74;46.92;98964.86;434636;1264;108275;-41
2023/04/27 16:46:09;;;;;;;27.30;11.20;;;;;;;9.68;47.19;98965.30;434899;1262;94918;-42
2023/04/27 16:56:15;;;;;;;19.80;10.30;;;;;;;9.66;47.31;98966.30;433964;1264;95310;-42
2023/04/27 17:06:22;;;;;;;23.10;11.10;;;;;;;9.55;46.99;98968.42;435683;1264;96398;-42
2023/04/27 17:26:31;;;;;;;16.90;9.10;;;;;;;8.96;47.29;98981.52;433792;1262;95663;-41
2023/04/27 17:36:39;;;;;;;29.90;13.10;;;;;;;8.64;47.52;98982.88;433890;1263;108803;-41
2023/04/27 17:56:48;;;;;;;38.10;10.70;;;;;;;8.03;48.44;98991.38;433794;1262;106298;-42
2023/04/27 18:06:52;;;;;;;15.40;9.00;;;;;;;7.75;48.87;98997.30;433841;1263;96231;-41
2023/04/27 18:16:56;;;;;;;24.70;10.50;;;;;;;7.47;49.31;99000.19;433842;1262;106493;-41
2023/04/27 18:27:00;;;;;;;36.70;17.50;;;;;;;7.10;50.12;99010.46;434022;1263;95709;-41
2023/04/27 18:37:04;;;;;;;110.40;38.90;;;;;;;6.69;50.93;99019.04;433551;1262;95345;-41
2023/04/27 18:47:08;;;;;;;139.70;29.10;;;;;;;6.23;51.75;99030.61;433804;1262;96124;-42
2023/04/27 18:57:12;;;;;;;92.30;28.70;;;;;;;5.86;52.46;99036.77;433665;1264;109612;-40
2023/04/27 19:07:16;;;;;;;69.00;27.10;;;;;;;5.49;53.14;99034.13;433856;1262;96229;-41
2023/04/27 19:17:19;;;;;;;77.10;25.00;;;;;;;5.06;53.53;99037.30;433679;1262;95424;-41
2023/04/27 19:27:23;;;;;;;49.50;21.80;;;;;;;4.68;54.25;99042.56;433754;1263;96141;-41
2023/04/27 19:37:26;;;;;;;31.00;18.30;;;;;;;4.46;54.79;99052.52;434091;1262;107783;-42
2023/04/27 19:47:33;;;;;;;55.50;26.40;;;;;;;4.34;55.42;99053.89;433781;1258;97077;-41
2023/04/27 19:57:37;;;;;;;96.60;40.80;;;;;;;4.27;56.01;99049.88;433788;1263;108661;-41
2023/04/27 20:07:41;;;;;;;94.10;36.70;;;;;;;4.17;56.62;99054.50;435319;1256;95575;-41
2023/04/27 20:27:53;;;;;;;59.10;29.60;;;;;;;3.82;57.48;99055.83;435344;1256;108664;-40
2023/04/27 20:48:00;;;;;;;72.10;37.90;;;;;;;3.60;58.68;99057.23;435340;1256;95941;-40
2023/04/27 20:58:04;;;;;;;93.20;46.20;;;;;;;3.80;59.21;99065.10;435284;1256;108385;-41
2023/04/27 21:08:07;;;;;;;97.00;54.40;;;;;;;4.05;59.35;99069.66;435170;1264;96111;-41
2023/04/27 21:18:15;;;;;;;169.20;81.00;;;;;;;4.28;59.67;99070.27;435253;1256;95666;-42
2023/04/27 21:28:33;;;;;;;198.50;86.80;;;;;;;4.49;60.10;99073.31;435348;1256;95435;-41
2023/04/27 21:38:37;;;;;;;205.00;90.00;;;;;;;4.57;60.41;99068.48;435310;1256;96139;-42
2023/04/27 21:48:41;;;;;;;209.60;84.70;;;;;;;4.60;60.36;99066.18;435408;1256;108037;-41
2023/04/27 21:58:45;;;;;;;192.80;78.60;;;;;;;4.60;60.54;99070.93;435286;1251;96206;-40
2023/04/27 22:08:53;;;;;;;127.00;53.30;;;;;;;4.59;60.61;99066.48;435211;1253;108695;-41
2023/04/27 22:18:56;;;;;;;63.40;31.50;;;;;;;4.63;60.71;99068.80;435181;1251;108076;-41
2023/04/27 22:29:00;;;;;;;68.70;33.10;;;;;;;4.69;60.78;99072.52;435301;1251;96311;-41
2023/04/27 22:39:03;;;;;;;91.20;44.10;;;;;;;4.78;61.01;99070.70;435152;1256;108002;-43
2023/04/27 22:49:07;;;;;;;86.80;43.60;;;;;;;4.77;61.31;99065.77;435493;1254;95314;-41
2023/04/27 22:59:11;;;;;;;95.20;47.00;;;;;;;4.72;61.30;99059.37;435245;1255;96154;-42
2023/04/27 23:09:15;;;;;;;125.60;63.20;;;;;;;4.67;61.48;99058.09;435335;1254;95537;-41
2023/04/27 23:19:22;;;;;;;162.10;72.50;;;;;;;4.57;61.77;99063.80;435218;1254;107108;-41
2023/04/27 23:29:26;;;;;;;89.00;49.20;;;;;;;4.51;61.92;99060.63;435196;1254;107161;-42
2023/04/27 23:39:30;;;;;;;77.70;44.20;;;;;;;4.55;62.06;99061.92;436874;1251;96914;-42
2023/04/27 23:49:33;;;;;;;111.10;55.50;;;;;;;4.58;62.40;99056.19;436918;1254;96136;-41
2023/04/27 23:59:40;;;;;;;116.20;56.60;;;;;;;4.56;62.88;99054.09;435693;1254;108443;-41
